Aeroporto :
LOGIN :

Iscrizione | Disclaimer

   EN    FR    IT 

 










Sommario :    VFR   VFR Marginale   IFR   IFR Intensivo   IFR Molto Intensivo
Visibilità : 
Base nubi : 
>= 8 km
>= 3000ft
5 / 8 km
1000 / 3000 ft
1500m / 5 km
500 / 1000 ft
800 / 1500m
200 / 500 ft
< 800m
< 200 ft
Simboli :   Temporali  Nebbia  Neve Forte  Precipitazioni Forti  Vento > 20 kt
SIGMETs :   Varie  Temporali  Ghiacco  Turbolenza  Onda orograficha  Ceneri Vulcaniche






- Altitudine del aeroporto : 3 ft
- Codice IATA : DHR


EHKD - Den Helder De Kooy

ULTIMO METAR :
  • 210846Z AUTO 09011KT 060V130 3900 R03/2900U BR BKN001 OVC003 02/01 Q1011 RED 11010KT 4000 BR BKN004 TEMPO 1500 BR BKN002 OVC004

METARs OBSOLETI :
  • 210825Z AUTO 09010KT 060V120 2800 R03/2800D BR OVC002 02/01 Q1011 AMB 11010KT 4000 BR BKN004 TEMPO 1500 BR BKN002 OVC004
  • 210755Z AUTO 10009KT 060V130 2200 R03/2200D BR OVC002 01/01 Q1011 AMB 11010KT 4000 BR BKN004 TEMPO 1500 BR SCT002 OVC004
  • 210727Z AUTO 10010KT 060V140 4200 BR BKN002 OVC003 01/01 Q1011 AMB 11010KT 4000 BR BKN004 TEMPO 1500 BR SCT002 OVC004
  • 210710Z AUTO 10010KT 060V140 4200 BR BKN002 OVC004 02/01 Q1011 AMB 11010KT 4000 BR BKN004 TEMPO 1500 BR SCT002 OVC004
  • 210655Z AUTO 11011KT 080V150 5000 BR OVC004 01/01 Q1011 YLO 11010KT 4000 BR BKN004 TEMPO 1500 BR SCT002 OVC004
  • 210627Z AUTO 10010KT 060V140 4700 BR SCT003 OVC004 02/01 Q1011 YLO 11010KT 4000 BR BKN004 TEMPO 1500 BR SCT002 OVC004
  • 210625Z AUTO 10010KT 060V140 5000 BR SCT003 OVC005 02/01 Q1011 YLO 11010KT 4000 BR BKN004 TEMPO 1500 BR SCT002 OVC004
  • 210558Z AUTO 11012KT 070V140 4200 BR FEW003 BKN004 OVC005 02/01 Q1012 YLO 11010KT 4000 BR BKN004 TEMPO 1500 BR SCT002 OVC004
  • 210555Z AUTO 12013KT 080V140 5000 BR SCT004 BKN005 OVC006 02/01 Q1012 YLO 11010KT 4000 BR BKN004 TEMPO 1500 BR SCT002 OVC004

TAF TAF EHKD
Valido dal 21 a 06 ore il 21 a 18 ore UTC


210505Z 2106/2118 12010KT 4500 BR SCT004 BKN006
TEMPO 2106/2110 3000 SCT002 BKN004
PROB30
TEMPO 2106/2108 1500 BCFG BKN002
BECMG 2107/2110 6000 NSW SCT006 BKN010
BECMG 2112/2115 SCT010



MetMap, La meteo Aeronautica in un colpo d'occhio ! - Copyright ORBIFLY Dicembre 2007 - Disclaimer

ORBIFLY MET'MAP TEAM :

Programmazione e sviluppo : Alexandra Zaïnal
Concezione e sviluppo : Baudouin d'Aumeries
Co-Programmazione e sviluppo : Marc-Olivier Méhu
Supporto tecnico e logistico : Manuel Goepfert
Aiuto per la traduzione : Arnaldo La Scala

Contatto : metmap@orbifly.com




FONTI E CREDITI :

   NOAA